Airfield :







YOU CAN JOIN US ON...

 
LOGIN :

Register | Disclaimer

   EN    FR    IT 

 









Legend :    VFR   Marginal VFR   IFR   Intensive IFR   Very Intensive IFR
Visi :
Ceiling :
>= 8 km
>= 3000ft
5 to 8 km
1000 to 3000 ft
1500m to 5 km
500 to 1000 ft
800 to 1500m
200 to 500 ft
< 800m
< 200 ft
Symbols :   Thunderstorms  Fog  Heavy snow  Heavy precipitations  Wind > 20 kt






- Airport Elevation : 133 ft
- IATA code : BED


KBED - Laurence G Hanscom Field

CURRENT METAR :
  • 281851Z 30006KT 10SM BKN040 BKN080 11/02 A2987 RMK AO2 SLP128 T01110022

EXPIRED METARs :
  • 281751Z 26011KT 10SM FEW040 BKN065 12/03 A2987 RMK AO2 SLP130 T01220028 10122 20039 56015
  • 281651Z 25007KT 10SM OVC060 11/04 A2988 RMK AO2 SLP133 T01110039

TAF KBED
Valid from the 28 at 18:00 until the 29 at 12:00 UTC


281731Z 2818/2912 28005KT P6SM BKN090
FM290000 28004KT P6SM SKC
KZBW FIR / North America



MET'MAP, your aeronautical weather chart ! - Copyright ORBIFLY December 2007 - Disclaimer

ORBIFLY MET'MAP TEAM :

Programming & Development : Alexandra Zaïnal
Concept & original design : Baudouin d'Aumeries
Assistance for programming : Marc-Olivier Méhu
Technical & hardware support : Manuel Goepfert

Contact : metmap@orbifly.com




SOURCES & CREDITS :

   NOAA